sensor_id;sensor_type;location;lat;lon;timestamp;P1;durP1;ratioP1;P2;durP2;ratioP2
48199;SDS011;33990;44.602;10.976;2024-01-30T00:02:24;11.07;;;8.60;;
48199;SDS011;33990;44.602;10.976;2024-01-30T00:04:52;10.30;;;8.52;;
48199;SDS011;33990;44.602;10.976;2024-01-30T00:07:20;11.32;;;8.50;;
48199;SDS011;33990;44.602;10.976;2024-01-30T00:09:47;9.40;;;8.18;;
48199;SDS011;33990;44.602;10.976;2024-01-30T00:12:15;8.80;;;7.90;;
48199;SDS011;33990;44.602;10.976;2024-01-30T00:14:43;9.75;;;8.18;;
48199;SDS011;33990;44.602;10.976;2024-01-30T00:17:10;9.30;;;8.30;;
48199;SDS011;33990;44.602;10.976;2024-01-30T00:19:38;8.80;;;7.90;;
48199;SDS011;33990;44.602;10.976;2024-01-30T00:22:06;8.90;;;7.95;;
48199;SDS011;33990;44.602;10.976;2024-01-30T00:24:34;8.30;;;7.50;;
48199;SDS011;33990;44.602;10.976;2024-01-30T00:27:02;9.38;;;8.32;;
48199;SDS011;33990;44.602;10.976;2024-01-30T00:29:29;8.40;;;7.50;;
48199;SDS011;33990;44.602;10.976;2024-01-30T00:32:00;9.05;;;8.15;;
48199;SDS011;33990;44.602;10.976;2024-01-30T00:34:28;8.95;;;8.05;;
48199;SDS011;33990;44.602;10.976;2024-01-30T00:36:55;10.50;;;8.38;;
48199;SDS011;33990;44.602;10.976;2024-01-30T00:39:23;10.20;;;8.70;;
48199;SDS011;33990;44.602;10.976;2024-01-30T00:41:50;9.65;;;8.65;;
48199;SDS011;33990;44.602;10.976;2024-01-30T00:44:18;9.30;;;8.27;;
48199;SDS011;33990;44.602;10.976;2024-01-30T00:46:45;9.95;;;8.55;;
48199;SDS011;33990;44.602;10.976;2024-01-30T00:49:12;8.45;;;7.65;;
48199;SDS011;33990;44.602;10.976;2024-01-30T00:51:40;9.48;;;7.68;;
48199;SDS011;33990;44.602;10.976;2024-01-30T00:54:07;9.10;;;8.05;;
48199;SDS011;33990;44.602;10.976;2024-01-30T00:56:35;8.55;;;7.65;;
48199;SDS011;33990;44.602;10.976;2024-01-30T00:59:02;8.07;;;7.28;;
48199;SDS011;33990;44.602;10.976;2024-01-30T01:01:30;8.88;;;7.97;;
48199;SDS011;33990;44.602;10.976;2024-01-30T01:03:57;8.93;;;8.02;;
48199;SDS011;33990;44.602;10.976;2024-01-30T01:06:25;8.07;;;7.28;;
48199;SDS011;33990;44.602;10.976;2024-01-30T01:08:52;8.23;;;7.32;;
48199;SDS011;33990;44.602;10.976;2024-01-30T01:11:20;9.18;;;8.18;;
48199;SDS011;33990;44.602;10.976;2024-01-30T01:13:47;11.20;;;8.80;;
48199;SDS011;33990;44.602;10.976;2024-01-30T01:16:14;8.88;;;7.95;;
48199;SDS011;33990;44.602;10.976;2024-01-30T01:18:42;9.57;;;8.57;;
48199;SDS011;33990;44.602;10.976;2024-01-30T01:21:09;9.55;;;8.57;;
48199;SDS011;33990;44.602;10.976;2024-01-30T01:23:37;9.68;;;7.75;;
48199;SDS011;33990;44.602;10.976;2024-01-30T01:26:04;8.98;;;8.07;;
48199;SDS011;33990;44.602;10.976;2024-01-30T01:28:32;9.43;;;8.25;;
48199;SDS011;33990;44.602;10.976;2024-01-30T01:30:59;9.25;;;8.05;;
48199;SDS011;33990;44.602;10.976;2024-01-30T01:33:32;9.40;;;8.40;;
48199;SDS011;33990;44.602;10.976;2024-01-30T01:36:00;9.13;;;8.10;;
48199;SDS011;33990;44.602;10.976;2024-01-30T01:38:30;9.65;;;7.70;;
48199;SDS011;33990;44.602;10.976;2024-01-30T01:40:57;8.95;;;8.05;;
48199;SDS011;33990;44.602;10.976;2024-01-30T01:43:25;8.38;;;7.35;;
48199;SDS011;33990;44.602;10.976;2024-01-30T01:45:52;9.10;;;8.05;;
48199;SDS011;33990;44.602;10.976;2024-01-30T01:48:20;8.55;;;7.75;;
48199;SDS011;33990;44.602;10.976;2024-01-30T01:50:47;8.82;;;7.93;;
48199;SDS011;33990;44.602;10.976;2024-01-30T01:53:15;8.45;;;7.57;;
48199;SDS011;33990;44.602;10.976;2024-01-30T01:55:45;8.30;;;7.40;;
48199;SDS011;33990;44.602;10.976;2024-01-30T01:58:13;8.13;;;7.32;;
48199;SDS011;33990;44.602;10.976;2024-01-30T02:00:41;8.10;;;7.28;;
48199;SDS011;33990;44.602;10.976;2024-01-30T02:03:12;7.93;;;7.13;;
48199;SDS011;33990;44.602;10.976;2024-01-30T02:05:41;8.70;;;7.80;;
48199;SDS011;33990;44.602;10.976;2024-01-30T02:08:09;8.52;;;7.72;;
48199;SDS011;33990;44.602;10.976;2024-01-30T02:10:37;8.15;;;7.35;;
48199;SDS011;33990;44.602;10.976;2024-01-30T02:13:04;8.40;;;7.60;;
48199;SDS011;33990;44.602;10.976;2024-01-30T02:15:31;8.70;;;7.85;;
48199;SDS011;33990;44.602;10.976;2024-01-30T02:17:59;8.18;;;7.38;;
48199;SDS011;33990;44.602;10.976;2024-01-30T02:20:26;8.48;;;7.65;;
48199;SDS011;33990;44.602;10.976;2024-01-30T02:22:58;7.53;;;6.82;;
48199;SDS011;33990;44.602;10.976;2024-01-30T02:25:31;8.10;;;7.30;;
48199;SDS011;33990;44.602;10.976;2024-01-30T02:28:00;7.90;;;7.10;;
48199;SDS011;33990;44.602;10.976;2024-01-30T02:30:27;8.85;;;7.95;;
48199;SDS011;33990;44.602;10.976;2024-01-30T02:32:55;8.32;;;7.22;;
48199;SDS011;33990;44.602;10.976;2024-01-30T02:35:22;7.97;;;7.18;;
48199;SDS011;33990;44.602;10.976;2024-01-30T02:37:50;8.00;;;7.30;;
48199;SDS011;33990;44.602;10.976;2024-01-30T02:40:17;7.72;;;6.93;;
48199;SDS011;33990;44.602;10.976;2024-01-30T02:42:45;8.82;;;7.53;;
48199;SDS011;33990;44.602;10.976;2024-01-30T02:45:12;8.10;;;7.30;;
48199;SDS011;33990;44.602;10.976;2024-01-30T02:47:40;8.00;;;7.20;;
48199;SDS011;33990;44.602;10.976;2024-01-30T02:50:07;7.90;;;7.13;;
48199;SDS011;33990;44.602;10.976;2024-01-30T02:52:36;8.20;;;7.15;;
48199;SDS011;33990;44.602;10.976;2024-01-30T02:55:03;7.32;;;6.63;;
48199;SDS011;33990;44.602;10.976;2024-01-30T02:57:31;9.75;;;7.43;;
48199;SDS011;33990;44.602;10.976;2024-01-30T02:59:58;7.90;;;7.20;;
48199;SDS011;33990;44.602;10.976;2024-01-30T03:02:26;7.80;;;7.00;;
48199;SDS011;33990;44.602;10.976;2024-01-30T03:04:53;7.93;;;7.15;;
48199;SDS011;33990;44.602;10.976;2024-01-30T03:07:21;9.23;;;8.32;;
48199;SDS011;33990;44.602;10.976;2024-01-30T03:09:48;8.00;;;7.07;;
48199;SDS011;33990;44.602;10.976;2024-01-30T03:12:16;8.50;;;7.60;;
48199;SDS011;33990;44.602;10.976;2024-01-30T03:14:43;8.63;;;7.80;;
48199;SDS011;33990;44.602;10.976;2024-01-30T03:17:10;8.15;;;7.35;;
48199;SDS011;33990;44.602;10.976;2024-01-30T03:19:37;7.32;;;6.63;;
48199;SDS011;33990;44.602;10.976;2024-01-30T03:22:05;8.77;;;7.80;;
48199;SDS011;33990;44.602;10.976;2024-01-30T03:24:32;8.15;;;7.35;;
48199;SDS011;33990;44.602;10.976;2024-01-30T03:27:00;7.88;;;7.18;;
48199;SDS011;33990;44.602;10.976;2024-01-30T03:29:27;9.52;;;7.80;;
48199;SDS011;33990;44.602;10.976;2024-01-30T03:31:54;8.48;;;7.25;;
48199;SDS011;33990;44.602;10.976;2024-01-30T03:34:22;8.75;;;7.85;;
48199;SDS011;33990;44.602;10.976;2024-01-30T03:36:49;8.45;;;7.60;;
48199;SDS011;33990;44.602;10.976;2024-01-30T03:39:17;8.73;;;7.93;;
48199;SDS011;33990;44.602;10.976;2024-01-30T03:41:44;10.70;;;8.52;;
48199;SDS011;33990;44.602;10.976;2024-01-30T03:44:11;8.68;;;7.80;;
48199;SDS011;33990;44.602;10.976;2024-01-30T03:46:39;8.52;;;7.57;;
48199;SDS011;33990;44.602;10.976;2024-01-30T03:49:06;8.95;;;8.05;;
48199;SDS011;33990;44.602;10.976;2024-01-30T03:51:33;9.32;;;7.75;;
48199;SDS011;33990;44.602;10.976;2024-01-30T03:54:01;9.13;;;7.65;;
48199;SDS011;33990;44.602;10.976;2024-01-30T03:56:28;8.77;;;7.88;;
48199;SDS011;33990;44.602;10.976;2024-01-30T03:58:55;8.88;;;7.88;;
48199;SDS011;33990;44.602;10.976;2024-01-30T04:01:24;8.30;;;7.38;;
48199;SDS011;33990;44.602;10.976;2024-01-30T04:03:51;9.63;;;8.23;;
48199;SDS011;33990;44.602;10.976;2024-01-30T04:06:19;9.38;;;7.90;;
48199;SDS011;33990;44.602;10.976;2024-01-30T04:08:46;9.00;;;7.95;;
48199;SDS011;33990;44.602;10.976;2024-01-30T04:11:14;10.48;;;8.93;;
48199;SDS011;33990;44.602;10.976;2024-01-30T04:13:41;9.18;;;7.82;;
48199;SDS011;33990;44.602;10.976;2024-01-30T04:16:18;9.70;;;8.70;;
48199;SDS011;33990;44.602;10.976;2024-01-30T04:18:46;10.65;;;8.95;;
48199;SDS011;33990;44.602;10.976;2024-01-30T04:21:14;9.45;;;7.80;;
48199;SDS011;33990;44.602;10.976;2024-01-30T04:23:41;9.25;;;8.25;;
48199;SDS011;33990;44.602;10.976;2024-01-30T04:26:08;9.98;;;8.38;;
48199;SDS011;33990;44.602;10.976;2024-01-30T04:28:36;9.50;;;8.45;;
48199;SDS011;33990;44.602;10.976;2024-01-30T04:31:03;8.48;;;7.28;;
48199;SDS011;33990;44.602;10.976;2024-01-30T04:33:31;9.65;;;8.68;;
48199;SDS011;33990;44.602;10.976;2024-01-30T04:35:58;9.45;;;8.45;;
48199;SDS011;33990;44.602;10.976;2024-01-30T04:38:25;9.18;;;8.27;;
48199;SDS011;33990;44.602;10.976;2024-01-30T04:40:54;9.27;;;8.35;;
48199;SDS011;33990;44.602;10.976;2024-01-30T04:43:21;9.60;;;8.60;;
48199;SDS011;33990;44.602;10.976;2024-01-30T04:45:49;9.77;;;8.77;;
48199;SDS011;33990;44.602;10.976;2024-01-30T04:48:17;9.90;;;8.90;;
48199;SDS011;33990;44.602;10.976;2024-01-30T04:50:44;9.77;;;8.48;;
48199;SDS011;33990;44.602;10.976;2024-01-30T04:53:14;10.02;;;8.43;;
48199;SDS011;33990;44.602;10.976;2024-01-30T04:55:41;9.20;;;8.18;;
48199;SDS011;33990;44.602;10.976;2024-01-30T04:58:09;9.82;;;8.48;;
48199;SDS011;33990;44.602;10.976;2024-01-30T05:00:36;9.73;;;8.73;;
48199;SDS011;33990;44.602;10.976;2024-01-30T05:03:03;9.23;;;8.18;;
48199;SDS011;33990;44.602;10.976;2024-01-30T05:05:31;9.10;;;8.13;;
48199;SDS011;33990;44.602;10.976;2024-01-30T05:07:58;10.82;;;8.63;;
48199;SDS011;33990;44.602;10.976;2024-01-30T05:10:26;10.07;;;8.27;;
48199;SDS011;33990;44.602;10.976;2024-01-30T05:12:53;9.85;;;8.85;;
48199;SDS011;33990;44.602;10.976;2024-01-30T05:15:20;9.25;;;8.30;;
48199;SDS011;33990;44.602;10.976;2024-01-30T05:17:48;8.60;;;7.68;;
48199;SDS011;33990;44.602;10.976;2024-01-30T05:20:16;10.02;;;8.30;;
48199;SDS011;33990;44.602;10.976;2024-01-30T05:22:44;10.23;;;8.43;;
48199;SDS011;33990;44.602;10.976;2024-01-30T05:25:12;9.27;;;8.18;;
48199;SDS011;33990;44.602;10.976;2024-01-30T05:27:40;9.32;;;8.27;;
48199;SDS011;33990;44.602;10.976;2024-01-30T05:30:08;9.23;;;8.32;;
48199;SDS011;33990;44.602;10.976;2024-01-30T05:32:36;9.40;;;7.80;;
48199;SDS011;33990;44.602;10.976;2024-01-30T05:35:03;9.25;;;8.35;;
48199;SDS011;33990;44.602;10.976;2024-01-30T05:37:31;10.18;;;9.00;;
48199;SDS011;33990;44.602;10.976;2024-01-30T05:39:58;8.48;;;7.53;;
48199;SDS011;33990;44.602;10.976;2024-01-30T05:42:26;8.82;;;7.75;;
48199;SDS011;33990;44.602;10.976;2024-01-30T05:44:53;9.80;;;8.02;;
48199;SDS011;33990;44.602;10.976;2024-01-30T05:47:21;10.93;;;8.73;;
48199;SDS011;33990;44.602;10.976;2024-01-30T05:49:48;10.00;;;9.00;;
48199;SDS011;33990;44.602;10.976;2024-01-30T05:52:15;8.93;;;8.02;;
48199;SDS011;33990;44.602;10.976;2024-01-30T05:54:43;9.90;;;8.65;;
48199;SDS011;33990;44.602;10.976;2024-01-30T05:57:10;9.35;;;8.25;;
48199;SDS011;33990;44.602;10.976;2024-01-30T05:59:38;10.88;;;9.18;;
48199;SDS011;33990;44.602;10.976;2024-01-30T06:02:08;8.80;;;7.90;;
48199;SDS011;33990;44.602;10.976;2024-01-30T06:04:35;9.90;;;8.88;;
48199;SDS011;33990;44.602;10.976;2024-01-30T06:07:03;9.65;;;8.65;;
48199;SDS011;33990;44.602;10.976;2024-01-30T06:09:33;9.43;;;8.48;;
48199;SDS011;33990;44.602;10.976;2024-01-30T06:12:00;9.35;;;8.38;;
48199;SDS011;33990;44.602;10.976;2024-01-30T06:14:28;9.88;;;8.82;;
48199;SDS011;33990;44.602;10.976;2024-01-30T06:16:55;8.70;;;7.78;;
48199;SDS011;33990;44.602;10.976;2024-01-30T06:19:22;8.98;;;7.97;;
48199;SDS011;33990;44.602;10.976;2024-01-30T06:21:50;9.52;;;8.52;;
48199;SDS011;33990;44.602;10.976;2024-01-30T06:24:17;9.20;;;8.30;;
48199;SDS011;33990;44.602;10.976;2024-01-30T06:26:45;9.25;;;8.35;;
48199;SDS011;33990;44.602;10.976;2024-01-30T06:29:12;9.93;;;8.88;;
48199;SDS011;33990;44.602;10.976;2024-01-30T06:31:45;8.70;;;7.82;;
48199;SDS011;33990;44.602;10.976;2024-01-30T06:34:13;9.30;;;7.65;;
48199;SDS011;33990;44.602;10.976;2024-01-30T06:36:41;8.60;;;7.70;;
48199;SDS011;33990;44.602;10.976;2024-01-30T06:39:09;11.13;;;9.18;;
48199;SDS011;33990;44.602;10.976;2024-01-30T06:41:36;9.43;;;8.38;;
48199;SDS011;33990;44.602;10.976;2024-01-30T06:44:03;8.95;;;8.00;;
48199;SDS011;33990;44.602;10.976;2024-01-30T06:46:33;8.55;;;7.75;;
48199;SDS011;33990;44.602;10.976;2024-01-30T06:49:01;8.43;;;7.53;;
48199;SDS011;33990;44.602;10.976;2024-01-30T06:51:28;9.82;;;8.82;;
48199;SDS011;33990;44.602;10.976;2024-01-30T06:53:56;9.38;;;8.38;;
48199;SDS011;33990;44.602;10.976;2024-01-30T06:56:23;10.15;;;8.40;;
48199;SDS011;33990;44.602;10.976;2024-01-30T06:58:50;9.23;;;8.27;;
48199;SDS011;33990;44.602;10.976;2024-01-30T07:01:18;8.73;;;7.82;;
48199;SDS011;33990;44.602;10.976;2024-01-30T07:03:46;10.30;;;8.70;;
48199;SDS011;33990;44.602;10.976;2024-01-30T07:06:13;8.93;;;7.60;;
48199;SDS011;33990;44.602;10.976;2024-01-30T07:08:41;9.35;;;8.40;;
48199;SDS011;33990;44.602;10.976;2024-01-30T07:11:08;9.40;;;8.40;;
48199;SDS011;33990;44.602;10.976;2024-01-30T07:13:35;9.13;;;8.07;;
48199;SDS011;33990;44.602;10.976;2024-01-30T07:16:03;11.18;;;8.93;;
48199;SDS011;33990;44.602;10.976;2024-01-30T07:18:31;9.90;;;8.38;;
48199;SDS011;33990;44.602;10.976;2024-01-30T07:20:58;9.80;;;8.80;;
48199;SDS011;33990;44.602;10.976;2024-01-30T07:23:25;9.55;;;8.52;;
48199;SDS011;33990;44.602;10.976;2024-01-30T07:25:53;10.38;;;8.40;;
48199;SDS011;33990;44.602;10.976;2024-01-30T07:28:20;9.85;;;8.80;;
48199;SDS011;33990;44.602;10.976;2024-01-30T07:30:48;11.30;;;8.52;;
48199;SDS011;33990;44.602;10.976;2024-01-30T07:33:16;10.50;;;8.65;;
48199;SDS011;33990;44.602;10.976;2024-01-30T07:35:44;10.20;;;8.45;;
48199;SDS011;33990;44.602;10.976;2024-01-30T07:38:12;9.48;;;8.13;;
48199;SDS011;33990;44.602;10.976;2024-01-30T07:40:40;11.77;;;9.02;;
48199;SDS011;33990;44.602;10.976;2024-01-30T07:43:08;9.20;;;8.25;;
48199;SDS011;33990;44.602;10.976;2024-01-30T07:45:36;9.88;;;7.80;;
48199;SDS011;33990;44.602;10.976;2024-01-30T07:48:05;10.13;;;8.75;;
48199;SDS011;33990;44.602;10.976;2024-01-30T07:50:33;10.38;;;8.27;;
48199;SDS011;33990;44.602;10.976;2024-01-30T07:53:00;10.93;;;8.90;;
48199;SDS011;33990;44.602;10.976;2024-01-30T07:55:28;10.85;;;8.57;;
48199;SDS011;33990;44.602;10.976;2024-01-30T07:57:56;11.20;;;8.82;;
48199;SDS011;33990;44.602;10.976;2024-01-30T08:00:23;11.15;;;8.75;;
48199;SDS011;33990;44.602;10.976;2024-01-30T08:02:51;10.30;;;8.40;;
48199;SDS011;33990;44.602;10.976;2024-01-30T08:05:21;9.68;;;8.30;;
48199;SDS011;33990;44.602;10.976;2024-01-30T08:07:50;11.75;;;9.10;;
48199;SDS011;33990;44.602;10.976;2024-01-30T08:10:18;10.30;;;9.20;;
48199;SDS011;33990;44.602;10.976;2024-01-30T08:12:46;11.65;;;9.30;;
48199;SDS011;33990;44.602;10.976;2024-01-30T08:15:13;9.80;;;8.80;;
48199;SDS011;33990;44.602;10.976;2024-01-30T08:17:41;10.80;;;9.15;;
48199;SDS011;33990;44.602;10.976;2024-01-30T08:20:08;11.55;;;9.73;;
48199;SDS011;33990;44.602;10.976;2024-01-30T08:22:39;10.15;;;8.77;;
48199;SDS011;33990;44.602;10.976;2024-01-30T08:25:09;9.90;;;8.80;;
48199;SDS011;33990;44.602;10.976;2024-01-30T08:27:37;10.18;;;8.90;;
48199;SDS011;33990;44.602;10.976;2024-01-30T08:30:06;10.18;;;8.63;;
48199;SDS011;33990;44.602;10.976;2024-01-30T08:32:34;11.43;;;10.10;;
48199;SDS011;33990;44.602;10.976;2024-01-30T08:35:02;11.68;;;9.25;;
48199;SDS011;33990;44.602;10.976;2024-01-30T08:37:34;10.40;;;8.70;;
48199;SDS011;33990;44.602;10.976;2024-01-30T08:40:02;11.63;;;9.95;;
48199;SDS011;33990;44.602;10.976;2024-01-30T08:42:31;11.70;;;9.68;;
48199;SDS011;33990;44.602;10.976;2024-01-30T08:45:00;12.27;;;10.07;;
48199;SDS011;33990;44.602;10.976;2024-01-30T08:47:27;11.50;;;10.30;;
48199;SDS011;33990;44.602;10.976;2024-01-30T08:49:54;13.60;;;10.00;;
48199;SDS011;33990;44.602;10.976;2024-01-30T08:52:22;11.35;;;10.15;;
48199;SDS011;33990;44.602;10.976;2024-01-30T08:54:49;11.55;;;9.93;;
48199;SDS011;33990;44.602;10.976;2024-01-30T08:57:17;14.52;;;10.68;;
48199;SDS011;33990;44.602;10.976;2024-01-30T08:59:44;12.70;;;10.52;;
48199;SDS011;33990;44.602;10.976;2024-01-30T09:02:13;12.68;;;9.73;;
48199;SDS011;33990;44.602;10.976;2024-01-30T09:04:43;11.90;;;9.82;;
48199;SDS011;33990;44.602;10.976;2024-01-30T09:07:11;11.73;;;10.32;;
48199;SDS011;33990;44.602;10.976;2024-01-30T09:09:40;11.98;;;10.50;;
48199;SDS011;33990;44.602;10.976;2024-01-30T09:12:08;11.27;;;10.07;;
48199;SDS011;33990;44.602;10.976;2024-01-30T09:14:39;11.25;;;9.95;;
48199;SDS011;33990;44.602;10.976;2024-01-30T09:17:08;11.90;;;10.45;;
48199;SDS011;33990;44.602;10.976;2024-01-30T09:19:35;12.55;;;11.02;;
48199;SDS011;33990;44.602;10.976;2024-01-30T09:22:03;13.80;;;11.88;;
48199;SDS011;33990;44.602;10.976;2024-01-30T09:24:31;13.77;;;11.80;;
48199;SDS011;33990;44.602;10.976;2024-01-30T09:26:58;13.75;;;12.15;;
48199;SDS011;33990;44.602;10.976;2024-01-30T09:29:26;14.65;;;11.40;;
48199;SDS011;33990;44.602;10.976;2024-01-30T09:31:53;12.75;;;11.20;;
48199;SDS011;33990;44.602;10.976;2024-01-30T09:34:21;12.25;;;10.55;;
48199;SDS011;33990;44.602;10.976;2024-01-30T09:36:48;13.70;;;11.30;;
48199;SDS011;33990;44.602;10.976;2024-01-30T09:39:16;13.02;;;11.63;;
48199;SDS011;33990;44.602;10.976;2024-01-30T09:41:56;11.25;;;10.05;;
48199;SDS011;33990;44.602;10.976;2024-01-30T09:44:29;13.65;;;11.32;;
48199;SDS011;33990;44.602;10.976;2024-01-30T09:46:57;14.60;;;13.07;;
48199;SDS011;33990;44.602;10.976;2024-01-30T09:49:33;15.23;;;11.45;;
48199;SDS011;33990;44.602;10.976;2024-01-30T09:52:02;12.38;;;11.13;;
48199;SDS011;33990;44.602;10.976;2024-01-30T09:54:31;12.07;;;10.07;;
48199;SDS011;33990;44.602;10.976;2024-01-30T09:57:03;12.30;;;10.97;;
48199;SDS011;33990;44.602;10.976;2024-01-30T09:59:31;14.80;;;12.25;;
48199;SDS011;33990;44.602;10.976;2024-01-30T10:02:00;13.20;;;10.90;;
48199;SDS011;33990;44.602;10.976;2024-01-30T10:04:27;14.55;;;11.32;;
48199;SDS011;33990;44.602;10.976;2024-01-30T10:06:55;12.57;;;11.30;;
48199;SDS011;33990;44.602;10.976;2024-01-30T10:09:22;14.52;;;11.45;;
48199;SDS011;33990;44.602;10.976;2024-01-30T10:11:50;12.77;;;10.95;;
48199;SDS011;33990;44.602;10.976;2024-01-30T10:14:18;12.50;;;10.43;;
48199;SDS011;33990;44.602;10.976;2024-01-30T10:16:46;13.80;;;10.80;;
48199;SDS011;33990;44.602;10.976;2024-01-30T10:19:14;13.00;;;11.52;;
48199;SDS011;33990;44.602;10.976;2024-01-30T10:21:41;11.90;;;10.70;;
48199;SDS011;33990;44.602;10.976;2024-01-30T10:24:09;12.10;;;10.80;;
48199;SDS011;33990;44.602;10.976;2024-01-30T10:26:39;12.90;;;10.68;;
48199;SDS011;33990;44.602;10.976;2024-01-30T10:29:07;11.23;;;9.63;;
48199;SDS011;33990;44.602;10.976;2024-01-30T10:31:34;13.70;;;11.00;;
48199;SDS011;33990;44.602;10.976;2024-01-30T10:34:02;12.63;;;10.48;;
48199;SDS011;33990;44.602;10.976;2024-01-30T10:36:42;11.63;;;10.43;;
48199;SDS011;33990;44.602;10.976;2024-01-30T10:39:14;12.25;;;10.95;;
48199;SDS011;33990;44.602;10.976;2024-01-30T10:41:44;11.68;;;10.00;;
48199;SDS011;33990;44.602;10.976;2024-01-30T10:44:17;12.35;;;10.77;;
48199;SDS011;33990;44.602;10.976;2024-01-30T10:46:50;13.20;;;9.82;;
48199;SDS011;33990;44.602;10.976;2024-01-30T10:49:23;12.18;;;10.85;;
48199;SDS011;33990;44.602;10.976;2024-01-30T10:51:52;10.68;;;9.57;;
48199;SDS011;33990;44.602;10.976;2024-01-30T10:54:19;12.07;;;10.68;;
48199;SDS011;33990;44.602;10.976;2024-01-30T10:56:47;12.32;;;9.85;;
48199;SDS011;33990;44.602;10.976;2024-01-30T10:59:16;12.13;;;10.27;;
48199;SDS011;33990;44.602;10.976;2024-01-30T11:01:44;12.13;;;9.98;;
48199;SDS011;33990;44.602;10.976;2024-01-30T11:04:12;11.75;;;10.52;;
48199;SDS011;33990;44.602;10.976;2024-01-30T11:06:43;12.95;;;10.23;;
48199;SDS011;33990;44.602;10.976;2024-01-30T11:09:11;12.23;;;9.82;;
48199;SDS011;33990;44.602;10.976;2024-01-30T11:11:49;12.80;;;11.00;;
48199;SDS011;33990;44.602;10.976;2024-01-30T11:14:30;11.25;;;9.98;;
48199;SDS011;33990;44.602;10.976;2024-01-30T11:16:58;12.55;;;9.77;;
48199;SDS011;33990;44.602;10.976;2024-01-30T11:19:26;12.77;;;10.27;;
48199;SDS011;33990;44.602;10.976;2024-01-30T11:21:55;11.02;;;9.82;;
48199;SDS011;33990;44.602;10.976;2024-01-30T11:24:24;12.07;;;10.07;;
48199;SDS011;33990;44.602;10.976;2024-01-30T11:26:55;11.88;;;9.15;;
48199;SDS011;33990;44.602;10.976;2024-01-30T11:29:28;11.10;;;9.95;;
48199;SDS011;33990;44.602;10.976;2024-01-30T11:31:55;10.75;;;9.65;;
48199;SDS011;33990;44.602;10.976;2024-01-30T11:34:26;10.35;;;8.98;;
48199;SDS011;33990;44.602;10.976;2024-01-30T11:36:57;10.60;;;9.50;;
48199;SDS011;33990;44.602;10.976;2024-01-30T11:39:31;11.57;;;9.23;;
48199;SDS011;33990;44.602;10.976;2024-01-30T11:41:59;11.45;;;9.50;;
48199;SDS011;33990;44.602;10.976;2024-01-30T11:44:27;11.13;;;9.35;;
48199;SDS011;33990;44.602;10.976;2024-01-30T11:46:54;11.15;;;9.95;;
48199;SDS011;33990;44.602;10.976;2024-01-30T11:49:21;11.43;;;10.05;;
48199;SDS011;33990;44.602;10.976;2024-01-30T11:51:50;9.80;;;8.80;;
48199;SDS011;33990;44.602;10.976;2024-01-30T11:54:20;10.88;;;9.45;;
48199;SDS011;33990;44.602;10.976;2024-01-30T11:56:47;11.25;;;8.82;;
48199;SDS011;33990;44.602;10.976;2024-01-30T11:59:15;9.88;;;8.48;;
48199;SDS011;33990;44.602;10.976;2024-01-30T12:01:42;10.30;;;8.48;;
48199;SDS011;33990;44.602;10.976;2024-01-30T12:04:10;10.65;;;9.00;;
48199;SDS011;33990;44.602;10.976;2024-01-30T12:06:38;10.77;;;8.77;;
48199;SDS011;33990;44.602;10.976;2024-01-30T12:09:06;10.07;;;8.25;;
48199;SDS011;33990;44.602;10.976;2024-01-30T12:11:45;9.10;;;8.15;;
48199;SDS011;33990;44.602;10.976;2024-01-30T12:14:19;12.93;;;9.68;;
48199;SDS011;33990;44.602;10.976;2024-01-30T12:16:49;8.60;;;7.70;;
48199;SDS011;33990;44.602;10.976;2024-01-30T12:19:24;10.32;;;9.05;;
48199;SDS011;33990;44.602;10.976;2024-01-30T12:22:01;9.18;;;7.70;;
48199;SDS011;33990;44.602;10.976;2024-01-30T12:24:29;8.82;;;7.80;;
48199;SDS011;33990;44.602;10.976;2024-01-30T12:26:58;10.27;;;8.20;;
48199;SDS011;33990;44.602;10.976;2024-01-30T12:29:25;9.77;;;8.73;;
48199;SDS011;33990;44.602;10.976;2024-01-30T12:32:00;9.80;;;8.07;;
48199;SDS011;33990;44.602;10.976;2024-01-30T12:34:28;9.05;;;8.13;;
48199;SDS011;33990;44.602;10.976;2024-01-30T12:36:56;9.88;;;8.32;;
48199;SDS011;33990;44.602;10.976;2024-01-30T12:39:26;9.70;;;8.00;;
48199;SDS011;33990;44.602;10.976;2024-01-30T12:41:53;10.18;;;8.32;;
48199;SDS011;33990;44.602;10.976;2024-01-30T12:44:21;14.48;;;11.98;;
48199;SDS011;33990;44.602;10.976;2024-01-30T12:46:48;11.82;;;9.98;;
48199;SDS011;33990;44.602;10.976;2024-01-30T12:49:16;11.60;;;9.95;;
48199;SDS011;33990;44.602;10.976;2024-01-30T12:51:43;10.95;;;9.02;;
48199;SDS011;33990;44.602;10.976;2024-01-30T12:54:12;12.90;;;8.73;;
48199;SDS011;33990;44.602;10.976;2024-01-30T12:56:40;9.77;;;8.20;;
48199;SDS011;33990;44.602;10.976;2024-01-30T12:59:07;9.63;;;7.95;;
48199;SDS011;33990;44.602;10.976;2024-01-30T13:01:34;10.02;;;8.52;;
48199;SDS011;33990;44.602;10.976;2024-01-30T13:04:02;11.80;;;9.18;;
48199;SDS011;33990;44.602;10.976;2024-01-30T13:06:30;10.18;;;7.72;;
48199;SDS011;33990;44.602;10.976;2024-01-30T13:08:57;9.02;;;8.00;;
48199;SDS011;33990;44.602;10.976;2024-01-30T13:11:25;9.15;;;7.85;;
48199;SDS011;33990;44.602;10.976;2024-01-30T13:13:52;9.45;;;7.72;;
48199;SDS011;33990;44.602;10.976;2024-01-30T13:16:20;8.70;;;7.30;;
48199;SDS011;33990;44.602;10.976;2024-01-30T13:18:47;7.82;;;6.70;;
48199;SDS011;33990;44.602;10.976;2024-01-30T13:21:15;8.82;;;7.32;;
48199;SDS011;33990;44.602;10.976;2024-01-30T13:23:42;10.77;;;7.65;;
48199;SDS011;33990;44.602;10.976;2024-01-30T13:26:10;9.13;;;7.38;;
48199;SDS011;33990;44.602;10.976;2024-01-30T13:28:38;7.68;;;6.72;;
48199;SDS011;33990;44.602;10.976;2024-01-30T13:31:05;10.63;;;6.72;;
48199;SDS011;33990;44.602;10.976;2024-01-30T13:33:33;8.68;;;6.63;;
48199;SDS011;33990;44.602;10.976;2024-01-30T13:36:01;7.90;;;6.68;;
48199;SDS011;33990;44.602;10.976;2024-01-30T13:38:28;9.10;;;7.22;;
48199;SDS011;33990;44.602;10.976;2024-01-30T13:40:56;6.97;;;6.15;;
48199;SDS011;33990;44.602;10.976;2024-01-30T13:43:25;8.73;;;7.32;;
48199;SDS011;33990;44.602;10.976;2024-01-30T13:45:53;8.02;;;6.80;;
48199;SDS011;33990;44.602;10.976;2024-01-30T13:48:20;8.50;;;7.10;;
48199;SDS011;33990;44.602;10.976;2024-01-30T13:50:48;7.18;;;6.40;;
48199;SDS011;33990;44.602;10.976;2024-01-30T13:53:17;9.13;;;7.40;;
48199;SDS011;33990;44.602;10.976;2024-01-30T13:55:46;7.50;;;6.20;;
48199;SDS011;33990;44.602;10.976;2024-01-30T13:58:14;7.28;;;6.18;;
48199;SDS011;33990;44.602;10.976;2024-01-30T14:00:41;8.43;;;6.95;;
48199;SDS011;33990;44.602;10.976;2024-01-30T14:03:08;7.25;;;6.22;;
48199;SDS011;33990;44.602;10.976;2024-01-30T14:05:36;7.10;;;5.90;;
48199;SDS011;33990;44.602;10.976;2024-01-30T14:08:03;8.70;;;6.35;;
48199;SDS011;33990;44.602;10.976;2024-01-30T14:10:32;7.32;;;5.90;;
48199;SDS011;33990;44.602;10.976;2024-01-30T14:13:00;7.93;;;6.10;;
48199;SDS011;33990;44.602;10.976;2024-01-30T14:15:27;7.57;;;6.13;;
48199;SDS011;33990;44.602;10.976;2024-01-30T14:17:56;7.63;;;5.78;;
48199;SDS011;33990;44.602;10.976;2024-01-30T14:20:25;7.45;;;6.28;;
48199;SDS011;33990;44.602;10.976;2024-01-30T14:22:53;7.70;;;6.05;;
48199;SDS011;33990;44.602;10.976;2024-01-30T14:25:23;7.15;;;6.40;;
48199;SDS011;33990;44.602;10.976;2024-01-30T14:27:51;6.32;;;5.72;;
48199;SDS011;33990;44.602;10.976;2024-01-30T14:30:19;7.18;;;5.95;;
48199;SDS011;33990;44.602;10.976;2024-01-30T14:32:47;6.22;;;5.60;;
48199;SDS011;33990;44.602;10.976;2024-01-30T14:35:16;6.45;;;5.60;;